KJFZ

Tazewell County Airport

Richlands, Virginia, USA
METAR KJFZ 162355Z AUTO 23006KT 10SM CLR 02/M05 A3017 RMK AO2 T00241052 10050 20021
Observed Flight Rules
Dec-16 @ 23:55 UTC (29 minutes ago) Visual Flight Rules
Wind Visibility Clouds
230° at 6 knots 10 miles
  • Clear skies
Temperatures Readings
Current 2°C / 36°F
Dewpoint -5°C / 23°F
Humidity 60%
Altimeter 30.17" Hg
Pressure 1022 hPa
Elevation 809
METAR KJFZ 162355Z AUTO 23006KT 10SM CLR 02/M05 A3017 RMK AO2 T00241052 10050 20021
Observed Flight Rules
Dec-16 @ 23:55 UTC
(29 minutes ago)
VFR
Wind Visibility
230° at 6 knots 10 miles
Clouds
  • Clear skies
Temperature Dewpoint
2°C / 36°F -5°C / 23°F
Humidity Altimeter Pressure
60% 30.17" Hg 1022 hPa